Time;durP1;ratioP1;P1;durP2;ratioP2;P2;SDS_P1;SDS_P2;PMS_P1;PMS_P2;Temp;Humidity;BMP_temperature;BMP_pressure;BME280_temperature;BME280_humidity;BME280_pressure;Samples;Min_cycle;Max_cycle;Signal;HPM_P1;HPM_P2
2022/07/18 00:01:37;;;;;;;6.60;4.25;;;17.40;99.90;;;;;;5069429;28;20040;-58
2022/07/18 00:04:02;;;;;;;9.43;5.93;;;17.40;99.90;;;;;;5060945;28;20507;-60
2022/07/18 00:06:28;;;;;;;7.13;5.28;;;17.40;99.90;;;;;;5071336;28;20037;-60
2022/07/18 00:08:54;;;;;;;7.10;5.63;;;17.40;99.90;;;;;;5067053;28;20123;-60
2022/07/18 00:11:21;;;;;;;9.35;5.72;;;17.40;99.90;;;;;;5071620;28;20653;-59
2022/07/18 00:13:47;;;;;;;7.45;5.03;;;17.50;99.90;;;;;;5073088;28;20483;-60
2022/07/18 00:16:13;;;;;;;7.78;5.68;;;17.40;99.90;;;;;;5072045;28;20098;-59
2022/07/18 00:18:39;;;;;;;6.82;4.82;;;17.50;99.90;;;;;;5063239;28;20518;-59
2022/07/18 00:21:05;;;;;;;7.53;5.22;;;17.50;99.90;;;;;;5080816;22;20032;-58
2022/07/18 00:23:30;;;;;;;9.00;5.55;;;17.50;99.90;;;;;;5066484;28;20066;-58
2022/07/18 00:25:56;;;;;;;5.55;4.40;;;17.40;99.90;;;;;;5053790;28;20086;-58
2022/07/18 00:28:22;;;;;;;7.78;4.30;;;17.40;99.90;;;;;;5048210;28;20511;-58
2022/07/18 00:30:48;;;;;;;6.63;5.03;;;17.40;99.90;;;;;;5040647;28;20044;-58
2022/07/18 00:33:14;;;;;;;9.07;4.82;;;17.40;99.90;;;;;;5067683;28;20186;-58
2022/07/18 00:35:39;;;;;;;7.82;5.03;;;17.30;99.90;;;;;;5064351;28;20025;-58
2022/07/18 00:38:05;;;;;;;6.88;4.65;;;17.30;99.90;;;;;;5037558;28;20037;-57
2022/07/18 00:40:32;;;;;;;6.78;4.75;;;17.30;99.90;;;;;;5051968;28;20043;-58
2022/07/18 00:42:58;;;;;;;5.88;4.28;;;17.30;99.90;;;;;;5077817;28;20043;-57
2022/07/18 00:45:24;;;;;;;6.15;4.75;;;17.30;99.90;;;;;;5064533;28;20049;-58
2022/07/18 00:47:52;;;;;;;7.20;5.18;;;17.20;99.90;;;;;;5065892;28;20056;-58
2022/07/18 00:50:20;;;;;;;9.50;5.13;;;17.20;99.90;;;;;;5066230;28;20154;-57
2022/07/18 00:52:46;;;;;;;5.18;3.88;;;16.80;99.90;;;;;;5085139;28;20037;-58
2022/07/18 00:55:12;;;;;;;5.93;4.70;;;17.10;99.90;;;;;;5066988;28;20103;-60
2022/07/18 00:57:40;;;;;;;7.32;4.97;;;17.10;99.90;;;;;;5067750;28;20041;-57
2022/07/18 01:02:57;;;;;;;11.07;6.18;;;17.10;99.90;;;;;;5068242;28;20043;-58
2022/07/18 01:05:23;;;;;;;10.88;7.50;;;17.00;99.90;;;;;;5062979;28;20099;-57
2022/07/18 01:07:51;;;;;;;8.82;6.10;;;16.90;99.90;;;;;;5056224;28;20086;-59
2022/07/18 01:10:17;;;;;;;7.72;5.63;;;16.70;99.90;;;;;;5066215;28;20125;-57
2022/07/18 01:12:44;;;;;;;7.93;4.47;;;16.70;99.90;;;;;;5062031;28;20051;-58
2022/07/18 01:15:10;;;;;;;5.50;4.88;;;16.70;99.90;;;;;;5059495;28;20040;-58
2022/07/18 01:17:36;;;;;;;8.63;5.70;;;16.70;99.90;;;;;;5046868;28;20044;-59
2022/07/18 01:20:03;;;;;;;6.95;4.60;;;16.80;99.90;;;;;;5070484;28;20040;-58
2022/07/18 01:22:29;;;;;;;6.32;4.10;;;16.80;99.90;;;;;;5056630;28;20135;-58
2022/07/18 01:24:55;;;;;;;7.80;5.20;;;16.80;99.90;;;;;;5070485;28;20459;-59
2022/07/18 01:27:21;;;;;;;7.35;5.22;;;16.90;99.90;;;;;;5070570;28;20469;-58
2022/07/18 01:29:49;;;;;;;7.63;5.93;;;16.90;99.90;;;;;;5066935;28;20509;-60
2022/07/18 01:32:15;;;;;;;7.50;5.38;;;16.80;99.90;;;;;;5052496;28;20037;-58
2022/07/18 01:34:41;;;;;;;6.40;4.50;;;16.80;99.90;;;;;;5069175;28;20447;-58
2022/07/18 01:37:08;;;;;;;8.48;5.57;;;16.80;99.90;;;;;;5071050;28;20494;-59
2022/07/18 01:39:34;;;;;;;7.55;5.68;;;16.80;99.90;;;;;;5070966;28;20387;-59
2022/07/18 01:42:03;;;;;;;7.00;4.90;;;16.70;99.90;;;;;;5063822;28;20052;-59
2022/07/18 01:44:30;;;;;;;5.72;4.18;;;16.70;99.90;;;;;;5070804;28;20048;-58
2022/07/18 01:46:56;;;;;;;6.95;5.43;;;16.60;99.90;;;;;;5071829;28;20043;-59
2022/07/18 01:49:22;;;;;;;6.57;4.68;;;16.60;99.90;;;;;;5054309;28;20040;-59
2022/07/18 01:51:49;;;;;;;8.98;5.20;;;16.60;99.90;;;;;;5070612;28;20106;-59
2022/07/18 01:54:16;;;;;;;9.18;5.72;;;16.60;99.90;;;;;;5069976;28;20495;-58
2022/07/18 01:56:41;;;;;;;7.05;5.25;;;16.60;99.90;;;;;;5058872;28;20506;-58
2022/07/18 01:59:07;;;;;;;9.77;5.95;;;16.60;99.90;;;;;;5066041;28;20048;-58
2022/07/18 02:01:33;;;;;;;7.43;5.72;;;16.60;99.90;;;;;;5070360;28;20487;-59
2022/07/18 02:03:59;;;;;;;7.88;5.82;;;16.60;99.90;;;;;;5053342;28;20041;-55
2022/07/18 02:06:24;;;;;;;7.97;5.30;;;16.60;99.90;;;;;;5070301;28;20047;-61
2022/07/18 02:08:50;;;;;;;7.28;5.53;;;16.50;99.90;;;;;;5069900;28;20044;-59
2022/07/18 02:11:16;;;;;;;7.75;5.63;;;16.50;99.90;;;;;;5068928;28;20478;-58
2022/07/18 02:13:41;;;;;;;7.18;5.47;;;16.40;99.90;;;;;;5070513;28;20029;-58
2022/07/18 02:16:07;;;;;;;8.27;5.65;;;16.40;99.90;;;;;;5070187;28;20052;-57
2022/07/18 02:18:33;;;;;;;7.93;5.72;;;16.40;99.90;;;;;;5068393;28;20083;-57
2022/07/18 02:21:02;;;;;;;7.40;5.40;;;16.40;99.90;;;;;;5070874;28;20089;-59
2022/07/18 02:23:28;;;;;;;7.85;5.63;;;16.40;99.90;;;;;;5063753;28;20639;-58
2022/07/18 02:25:55;;;;;;;8.60;5.95;;;16.30;99.90;;;;;;5065808;28;20036;-59
2022/07/18 02:28:21;;;;;;;7.63;5.25;;;16.30;99.90;;;;;;5084533;28;20045;-58
2022/07/18 02:30:48;;;;;;;5.97;4.90;;;16.30;99.90;;;;;;5033333;28;20043;-58
2022/07/18 02:33:14;;;;;;;8.57;5.82;;;16.30;99.90;;;;;;5069691;28;20118;-58
2022/07/18 02:35:40;;;;;;;10.02;6.25;;;16.30;99.90;;;;;;5069689;28;20040;-57
2022/07/18 02:38:06;;;;;;;8.10;5.90;;;16.30;99.90;;;;;;5069817;28;20063;-57
2022/07/18 02:40:32;;;;;;;9.23;6.07;;;16.30;99.90;;;;;;5065912;28;20044;-56
2022/07/18 02:42:58;;;;;;;9.85;5.88;;;16.30;99.90;;;;;;5068886;28;20530;-60
2022/07/18 02:45:23;;;;;;;8.68;5.30;;;16.30;99.90;;;;;;5069255;28;20055;-59
2022/07/18 02:47:49;;;;;;;8.02;5.90;;;16.30;99.90;;;;;;5052604;28;20128;-60
2022/07/18 02:50:15;;;;;;;10.82;7.38;;;16.30;99.90;;;;;;5069316;28;20123;-56
2022/07/18 02:52:41;;;;;;;10.18;6.03;;;16.30;99.90;;;;;;5071108;28;20037;-58
2022/07/18 02:55:09;;;;;;;6.38;4.80;;;16.30;99.90;;;;;;5066160;28;20106;-58
2022/07/18 02:57:35;;;;;;;7.80;6.00;;;16.30;99.90;;;;;;5074589;28;20047;-59
2022/07/18 03:00:02;;;;;;;8.95;5.78;;;16.30;99.90;;;;;;5068376;28;20044;-57
2022/07/18 03:02:28;;;;;;;7.10;5.20;;;16.30;99.90;;;;;;5055394;28;20507;-57
2022/07/18 03:04:54;;;;;;;7.95;6.05;;;16.30;99.90;;;;;;5066537;28;20048;-60
2022/07/18 03:07:20;;;;;;;8.05;6.13;;;16.30;99.90;;;;;;5066541;28;20044;-58
2022/07/18 03:09:45;;;;;;;9.77;7.07;;;16.20;99.90;;;;;;5053251;28;20611;-58
2022/07/18 03:12:11;;;;;;;8.48;6.40;;;16.20;99.90;;;;;;5064665;28;20036;-58
2022/07/18 03:14:37;;;;;;;9.98;5.97;;;16.20;99.90;;;;;;5069832;28;20044;-59
2022/07/18 03:17:02;;;;;;;7.95;6.30;;;16.20;99.90;;;;;;5039680;28;20477;-58
2022/07/18 03:19:28;;;;;;;7.18;5.47;;;16.20;99.90;;;;;;5071547;28;20442;-58
2022/07/18 03:21:54;;;;;;;7.80;5.20;;;16.20;99.90;;;;;;5069931;28;20137;-57
2022/07/18 03:24:19;;;;;;;7.97;5.60;;;16.20;99.90;;;;;;5069063;28;20215;-58
2022/07/18 03:26:45;;;;;;;9.73;6.00;;;16.20;99.90;;;;;;5051130;28;20086;-57
2022/07/18 03:29:12;;;;;;;9.27;5.40;;;16.20;99.90;;;;;;5067956;28;20121;-56
2022/07/18 03:31:38;;;;;;;8.55;5.82;;;16.20;99.90;;;;;;5086601;28;20032;-57
2022/07/18 03:34:04;;;;;;;10.82;6.05;;;16.20;99.90;;;;;;5069633;28;20124;-58
2022/07/18 03:36:30;;;;;;;9.13;5.43;;;16.20;99.90;;;;;;5069268;28;20123;-59
2022/07/18 03:38:56;;;;;;;10.50;6.25;;;16.30;99.90;;;;;;5059278;28;20410;-58
2022/07/18 03:41:21;;;;;;;8.35;6.10;;;16.30;99.90;;;;;;5065312;28;20041;-59
2022/07/18 03:43:47;;;;;;;9.43;6.38;;;16.30;99.90;;;;;;5066868;28;20315;-60
2022/07/18 03:46:13;;;;;;;7.68;5.70;;;16.30;99.90;;;;;;5046518;28;20139;-55
2022/07/18 03:48:39;;;;;;;8.55;5.32;;;16.30;99.90;;;;;;5069680;28;20036;-56
2022/07/18 03:51:04;;;;;;;7.57;5.45;;;16.30;99.90;;;;;;5057436;28;20036;-59
2022/07/18 03:53:31;;;;;;;7.75;5.50;;;16.30;99.90;;;;;;5077022;28;20044;-58
2022/07/18 03:55:58;;;;;;;8.13;6.13;;;16.30;99.90;;;;;;5069528;28;20120;-58
2022/07/18 03:58:24;;;;;;;8.70;5.82;;;16.30;99.90;;;;;;5067512;28;20066;-58
2022/07/18 04:00:49;;;;;;;9.23;6.07;;;16.30;99.90;;;;;;5067363;28;20044;-58
2022/07/18 04:03:18;;;;;;;8.65;5.20;;;16.30;99.90;;;;;;5067398;28;20045;-58
2022/07/18 04:05:44;;;;;;;9.50;5.85;;;16.30;99.90;;;;;;5067535;28;20051;-58
2022/07/18 04:08:10;;;;;;;7.70;5.30;;;16.30;99.90;;;;;;5067399;28;20504;-57
2022/07/18 04:10:39;;;;;;;9.30;5.50;;;16.40;99.90;;;;;;5066456;28;20040;-58
2022/07/18 04:13:06;;;;;;;9.88;5.70;;;16.30;99.90;;;;;;5065089;28;20494;-55
2022/07/18 04:15:32;;;;;;;7.88;5.75;;;16.40;99.90;;;;;;5049951;28;20047;-56
2022/07/18 04:17:58;;;;;;;9.70;6.20;;;16.40;99.90;;;;;;5065727;28;20036;-59
2022/07/18 04:20:24;;;;;;;10.27;5.72;;;16.40;99.90;;;;;;5065155;28;20044;-59
2022/07/18 04:22:54;;;;;;;7.43;5.57;;;16.50;99.90;;;;;;5061328;28;20040;-57
2022/07/18 04:25:21;;;;;;;8.27;5.80;;;16.50;99.90;;;;;;5048100;28;20127;-57
2022/07/18 04:27:48;;;;;;;10.23;6.28;;;16.50;99.90;;;;;;5078230;28;20076;-57
2022/07/18 04:30:17;;;;;;;10.00;6.15;;;16.50;99.90;;;;;;5064755;28;20483;-56
2022/07/18 04:32:43;;;;;;;9.13;6.10;;;16.50;99.90;;;;;;5062157;28;20549;-59
2022/07/18 04:35:11;;;;;;;8.45;5.65;;;16.60;99.90;;;;;;5063128;28;20040;-59
2022/07/18 04:37:38;;;;;;;8.55;5.88;;;16.60;99.90;;;;;;5084206;28;20036;-56
2022/07/18 04:40:04;;;;;;;7.85;5.10;;;16.60;99.90;;;;;;5067437;28;20041;-60
2022/07/18 04:42:30;;;;;;;10.43;5.53;;;16.70;99.90;;;;;;5067167;28;20040;-57
2022/07/18 04:44:57;;;;;;;10.02;6.05;;;16.70;99.90;;;;;;5066405;28;20506;-60
2022/07/18 04:47:24;;;;;;;8.25;5.47;;;16.70;99.90;;;;;;5068084;28;20052;-59
2022/07/18 04:49:49;;;;;;;9.82;5.95;;;16.70;99.90;;;;;;5068461;28;20506;-57
2022/07/18 04:52:15;;;;;;;8.52;5.22;;;16.70;99.90;;;;;;5064947;28;20049;-57
2022/07/18 04:54:41;;;;;;;9.45;5.70;;;16.70;99.90;;;;;;5067536;28;20044;-57
2022/07/18 04:57:07;;;;;;;8.77;5.07;;;16.80;99.90;;;;;;5063502;28;20047;-57
2022/07/18 04:59:32;;;;;;;9.32;5.65;;;16.80;99.90;;;;;;5074608;28;20048;-57
2022/07/18 05:01:58;;;;;;;9.10;6.18;;;16.80;99.90;;;;;;5065488;28;20093;-58
2022/07/18 05:04:24;;;;;;;8.07;5.47;;;16.80;99.90;;;;;;5066116;28;20040;-58
2022/07/18 05:06:50;;;;;;;9.63;4.75;;;16.90;99.90;;;;;;5066047;28;20037;-58
2022/07/18 05:09:15;;;;;;;7.55;4.72;;;16.90;99.90;;;;;;5061065;28;20401;-59
2022/07/18 05:11:41;;;;;;;11.88;5.57;;;16.90;99.90;;;;;;5064824;28;20048;-58
2022/07/18 05:14:07;;;;;;;9.43;5.32;;;16.90;99.90;;;;;;5068098;28;20051;-58
2022/07/18 05:16:32;;;;;;;7.28;5.47;;;17.00;99.90;;;;;;5067386;28;20025;-58
2022/07/18 05:18:58;;;;;;;10.20;5.03;;;17.00;99.90;;;;;;5066173;28;20507;-57
2022/07/18 05:21:24;;;;;;;8.88;5.40;;;17.00;99.90;;;;;;5066664;28;20043;-58
2022/07/18 05:23:50;;;;;;;7.65;5.45;;;17.10;99.90;;;;;;5050264;28;20045;-58
2022/07/18 05:26:15;;;;;;;9.20;5.47;;;17.10;99.90;;;;;;5064031;28;20064;-58
2022/07/18 05:28:41;;;;;;;8.95;5.15;;;17.10;99.90;;;;;;5066812;28;20090;-58
2022/07/18 05:31:07;;;;;;;7.38;5.18;;;17.10;99.90;;;;;;5061097;28;20036;-58
2022/07/18 05:33:32;;;;;;;10.02;6.03;;;17.10;99.90;;;;;;5057622;28;20037;-58
2022/07/18 05:35:58;;;;;;;7.32;4.72;;;17.20;99.90;;;;;;5062210;28;20036;-58
2022/07/18 05:38:24;;;;;;;13.05;5.22;;;17.20;99.90;;;;;;5063588;28;20047;-57
2022/07/18 05:40:50;;;;;;;10.95;5.75;;;17.20;99.90;;;;;;5052297;28;20041;-58
2022/07/18 05:43:15;;;;;;;9.32;5.05;;;17.20;99.90;;;;;;5060362;28;20531;-58
2022/07/18 05:45:41;;;;;;;8.57;5.30;;;17.30;99.90;;;;;;5062819;28;20396;-58
2022/07/18 05:48:07;;;;;;;7.47;4.80;;;17.30;99.90;;;;;;5067584;28;20037;-58
2022/07/18 05:50:33;;;;;;;12.77;4.82;;;17.30;99.90;;;;;;5065067;28;20048;-58
2022/07/18 05:53:00;;;;;;;11.98;5.18;;;17.30;99.90;;;;;;5062832;28;20037;-57
2022/07/18 05:55:26;;;;;;;8.23;4.50;;;17.40;99.90;;;;;;5065425;28;20044;-56
2022/07/18 05:57:52;;;;;;;9.95;5.60;;;17.50;99.90;;;;;;5067207;28;20119;-57
2022/07/18 06:00:18;;;;;;;6.80;4.72;;;17.50;99.90;;;;;;5066806;28;20133;-57
2022/07/18 06:02:47;;;;;;;12.00;4.95;;;17.60;99.90;;;;;;5062068;28;20203;-56
2022/07/18 06:05:13;;;;;;;11.00;5.63;;;17.60;99.90;;;;;;5069674;28;20055;-57
2022/07/18 06:07:39;;;;;;;8.73;5.47;;;17.70;99.90;;;;;;5064156;28;20040;-57
2022/07/18 06:10:05;;;;;;;10.75;4.90;;;17.80;99.90;;;;;;5070133;28;20037;-57
2022/07/18 06:12:31;;;;;;;10.02;5.10;;;17.90;99.90;;;;;;5064842;28;20140;-58
2022/07/18 06:14:58;;;;;;;8.30;5.15;;;18.00;99.90;;;;;;5041112;28;20125;-58
2022/07/18 06:17:24;;;;;;;7.38;4.95;;;18.10;99.90;;;;;;5066671;28;20497;-60
2022/07/18 06:19:50;;;;;;;8.55;5.22;;;18.20;99.90;;;;;;5062758;28;20127;-58
2022/07/18 06:22:15;;;;;;;9.20;5.35;;;18.20;99.90;;;;;;5084188;28;20483;-58
2022/07/18 06:24:41;;;;;;;9.85;5.40;;;18.30;99.90;;;;;;5074185;22;20033;-86
2022/07/18 06:27:07;;;;;;;8.18;5.00;;;18.40;99.90;;;;;;5035060;28;20041;-85
2022/07/18 06:29:33;;;;;;;7.97;4.93;;;18.40;99.90;;;;;;5019724;28;20037;-85
2022/07/18 06:31:58;;;;;;;11.57;5.07;;;18.50;99.90;;;;;;5017844;28;20074;-85
2022/07/18 06:34:24;;;;;;;8.52;5.00;;;18.60;99.90;;;;;;5007305;28;20128;-85
2022/07/18 06:36:55;;;;;;;8.57;5.03;;;18.70;99.90;;;;;;5005807;28;20033;-85
2022/07/18 06:39:21;;;;;;;7.80;4.55;;;18.80;99.90;;;;;;5033475;28;20037;-86
2022/07/18 06:41:46;;;;;;;8.00;4.43;;;18.90;99.90;;;;;;5052416;28;20121;-86
2022/07/18 06:44:13;;;;;;;6.68;4.63;;;19.10;99.90;;;;;;5049319;28;20044;-83
2022/07/18 06:46:39;;;;;;;7.40;4.00;;;19.10;99.90;;;;;;5035717;28;20133;-85
2022/07/18 06:49:05;;;;;;;10.25;4.50;;;19.30;99.90;;;;;;5027580;28;20475;-85
2022/07/18 06:51:34;;;;;;;9.10;4.28;;;19.50;99.90;;;;;;5014843;28;20501;-85
2022/07/18 06:54:00;;;;;;;7.78;3.97;;;20.10;99.90;;;;;;5038408;28;20036;-85
2022/07/18 06:56:26;;;;;;;6.88;3.65;;;19.80;99.90;;;;;;5034043;28;20041;-85
2022/07/18 06:58:52;;;;;;;4.85;3.50;;;20.00;99.90;;;;;;5051557;28;20040;-84
2022/07/18 07:01:21;;;;;;;7.95;3.70;;;20.10;99.90;;;;;;5034751;28;20071;-84
2022/07/18 07:03:47;;;;;;;6.80;3.88;;;20.20;99.90;;;;;;5037246;28;20740;-84
2022/07/18 07:06:16;;;;;;;6.35;4.05;;;19.90;99.90;;;;;;5048694;28;20099;-85
2022/07/18 07:08:43;;;;;;;6.22;4.00;;;20.40;99.90;;;;;;5049510;28;20429;-85
2022/07/18 07:11:09;;;;;;;6.07;3.70;;;20.50;99.90;;;;;;5049255;28;20041;-85
2022/07/18 07:13:35;;;;;;;9.35;4.22;;;20.70;99.90;;;;;;5011253;28;20033;-85
2022/07/18 07:16:01;;;;;;;9.82;4.25;;;20.80;99.80;;;;;;5033206;28;20052;-85
2022/07/18 07:18:37;;;;;;;7.85;3.67;;;21.00;99.70;;;;;;5017148;28;20044;-85
2022/07/18 07:21:02;;;;;;;8.77;3.15;;;20.90;99.30;;;;;;5028639;28;20037;-85
2022/07/18 07:23:28;;;;;;;7.18;3.63;;;20.70;98.80;;;;;;5043095;28;20048;-85
2022/07/18 07:25:54;;;;;;;5.80;3.22;;;21.10;98.50;;;;;;5033277;28;20078;-85
2022/07/18 07:28:20;;;;;;;7.85;3.47;;;21.10;98.70;;;;;;5027520;28;20068;-85
2022/07/18 07:30:46;;;;;;;12.90;4.15;;;20.80;98.60;;;;;;5032268;28;20451;-84
2022/07/18 07:33:11;;;;;;;4.65;2.90;;;21.20;98.70;;;;;;5032986;28;20043;-84
2022/07/18 07:35:37;;;;;;;8.40;3.03;;;21.30;98.70;;;;;;5049407;28;20040;-85
2022/07/18 07:38:03;;;;;;;6.90;3.38;;;21.40;98.50;;;;;;5016257;28;20219;-84
2022/07/18 07:40:29;;;;;;;4.55;2.92;;;21.40;98.30;;;;;;5032782;28;20090;-84
2022/07/18 07:45:48;;;;;;;6.70;3.15;;;22.10;98.30;;;;;;5072687;22;20411;-57
2022/07/18 07:48:15;;;;;;;5.97;2.80;;;21.80;97.90;;;;;;5042604;28;20040;-57
2022/07/18 07:50:41;;;;;;;5.82;3.50;;;22.00;97.50;;;;;;5069544;28;20052;-56
2022/07/18 07:53:07;;;;;;;7.90;3.00;;;22.20;97.30;;;;;;5069439;28;20036;-56
2022/07/18 07:55:33;;;;;;;7.05;2.97;;;22.30;97.30;;;;;;5063143;28;20043;-56
2022/07/18 07:58:00;;;;;;;8.65;2.92;;;22.40;96.90;;;;;;5067980;28;20040;-57
2022/07/18 08:00:27;;;;;;;5.93;2.92;;;22.50;96.50;;;;;;5067553;28;20040;-57
2022/07/18 08:02:57;;;;;;;6.75;2.90;;;22.60;96.20;;;;;;5061276;28;20507;-56
2022/07/18 08:05:24;;;;;;;7.28;2.60;;;22.60;96.40;;;;;;5083760;28;20338;-55
2022/07/18 08:07:49;;;;;;;5.10;3.20;;;22.60;96.30;;;;;;5068898;28;20037;-55
2022/07/18 08:10:15;;;;;;;10.50;3.33;;;22.50;96.40;;;;;;5065989;28;20039;-55
2022/07/18 08:12:41;;;;;;;11.07;3.10;;;22.60;96.10;;;;;;5067853;28;20487;-55
2022/07/18 08:15:08;;;;;;;7.20;2.70;;;22.70;96.00;;;;;;5068195;28;20101;-53
2022/07/18 08:17:34;;;;;;;7.88;3.17;;;22.70;96.00;;;;;;5068192;28;20470;-54
2022/07/18 08:20:00;;;;;;;7.43;3.33;;;22.80;96.00;;;;;;5085091;28;20047;-56
2022/07/18 08:22:26;;;;;;;5.57;2.75;;;23.00;96.00;;;;;;5068153;28;20036;-54
2022/07/18 08:24:52;;;;;;;6.22;2.92;;;23.10;96.00;;;;;;5068523;28;20086;-55
2022/07/18 08:27:18;;;;;;;5.88;2.85;;;23.20;95.70;;;;;;5067345;28;20126;-57
2022/07/18 08:29:43;;;;;;;6.70;2.33;;;23.40;95.50;;;;;;5080543;28;20515;-55
2022/07/18 08:32:09;;;;;;;5.35;2.60;;;23.50;95.30;;;;;;5068792;28;20041;-56
2022/07/18 08:34:35;;;;;;;6.97;3.10;;;23.60;94.90;;;;;;5068980;28;20103;-56
2022/07/18 08:37:00;;;;;;;6.22;2.35;;;23.70;94.40;;;;;;5069380;28;20028;-56
2022/07/18 08:39:26;;;;;;;6.55;2.40;;;23.70;94.20;;;;;;5067782;28;20376;-56
2022/07/18 08:41:54;;;;;;;5.03;2.20;;;23.70;94.20;;;;;;5066675;28;20048;-55
2022/07/18 08:44:21;;;;;;;6.00;2.40;;;23.70;94.10;;;;;;5067702;28;20044;-57
2022/07/18 08:46:51;;;;;;;6.32;2.65;;;23.70;93.60;;;;;;5063300;28;20036;-57
2022/07/18 08:49:17;;;;;;;6.30;2.55;;;23.80;93.50;;;;;;5067462;28;20072;-57
2022/07/18 08:51:44;;;;;;;6.25;2.78;;;23.90;93.50;;;;;;5055499;28;20051;-55
2022/07/18 08:54:10;;;;;;;5.88;2.58;;;24.00;93.30;;;;;;5069361;28;20029;-57
2022/07/18 08:56:36;;;;;;;5.00;2.70;;;24.20;93.20;;;;;;5061172;28;20040;-57
2022/07/18 08:59:03;;;;;;;7.05;2.17;;;24.30;93.40;;;;;;5067434;28;20036;-58
2022/07/18 09:01:32;;;;;;;4.88;2.45;;;24.50;93.00;;;;;;5067104;28;20218;-57
2022/07/18 09:04:14;;;;;;;6.35;2.50;;;24.70;92.90;;;;;;5080511;28;20044;-57
2022/07/18 09:06:52;;;;;;;5.97;2.33;;;24.90;92.80;;;;;;5068063;28;20040;-58
2022/07/18 09:09:18;;;;;;;5.70;2.30;;;25.00;92.80;;;;;;5063570;28;20036;-58
2022/07/18 09:12:05;;;;;;;6.55;2.80;;;25.10;92.30;;;;;;5066893;28;20048;-58
2022/07/18 09:14:38;;;;;;;4.53;2.30;;;25.10;92.00;;;;;;5066510;28;20039;-56
2022/07/18 09:17:25;;;;;;;5.47;2.30;;;25.20;91.90;;;;;;5067545;28;20896;-57
2022/07/18 09:20:15;;;;;;;5.22;2.75;;;25.50;91.60;;;;;;5066485;28;20041;-56
2022/07/18 09:22:43;;;;;;;7.45;2.67;;;25.60;90.80;;;;;;5065554;28;20044;-58
2022/07/18 09:25:13;;;;;;;4.75;2.10;;;25.70;89.50;;;;;;5066052;28;20037;-57
2022/07/18 09:27:45;;;;;;;6.68;2.40;;;25.70;89.20;;;;;;5062509;28;20090;-56
2022/07/18 09:30:16;;;;;;;6.15;2.60;;;25.80;89.40;;;;;;5056573;28;20029;-58
2022/07/18 09:32:48;;;;;;;4.80;2.45;;;25.90;89.40;;;;;;5059900;28;20053;-58
2022/07/18 09:35:35;;;;;;;8.98;3.00;;;26.00;88.90;;;;;;5061017;28;20052;-57
2022/07/18 09:38:10;;;;;;;7.25;2.40;;;26.00;86.90;;;;;;5080044;28;20032;-58
2022/07/18 09:40:40;;;;;;;5.85;2.20;;;26.10;85.50;;;;;;5071966;28;20086;-58
2022/07/18 09:43:10;;;;;;;5.90;2.45;;;26.10;85.80;;;;;;5069045;28;20054;-57
2022/07/18 09:45:39;;;;;;;9.52;2.40;;;26.20;85.00;;;;;;5070475;28;20098;-57
2022/07/18 09:48:07;;;;;;;6.32;2.10;;;26.30;85.30;;;;;;5064109;28;20053;-56
2022/07/18 09:50:43;;;;;;;8.38;2.20;;;26.30;83.80;;;;;;5070082;28;20045;-58
2022/07/18 09:53:32;;;;;;;6.18;2.70;;;26.20;82.50;;;;;;5081033;28;20588;-58
2022/07/18 09:56:03;;;;;;;5.93;2.20;;;26.30;82.00;;;;;;5069260;28;20066;-57
2022/07/18 09:58:31;;;;;;;8.35;2.40;;;26.40;84.40;;;;;;5084828;28;20437;-57
2022/07/18 10:00:59;;;;;;;5.28;2.25;;;26.50;84.30;;;;;;5069418;28;20511;-58
2022/07/18 10:03:25;;;;;;;7.45;2.35;;;26.70;83.40;;;;;;5070554;28;20043;-58
2022/07/18 10:05:53;;;;;;;5.07;2.20;;;26.80;80.90;;;;;;5053051;28;20040;-58
2022/07/18 10:08:21;;;;;;;6.68;2.70;;;27.00;82.10;;;;;;5068254;28;20498;-58
2022/07/18 10:10:49;;;;;;;6.05;2.33;;;27.10;79.70;;;;;;5064263;28;20115;-58
2022/07/18 10:13:17;;;;;;;6.38;2.30;;;27.20;79.10;;;;;;5070398;28;20041;-59
2022/07/18 10:15:45;;;;;;;5.70;2.38;;;27.30;77.80;;;;;;5051784;28;20044;-58
2022/07/18 10:18:13;;;;;;;7.57;2.35;;;27.40;76.70;;;;;;5064917;28;20503;-58
2022/07/18 10:20:52;;;;;;;5.88;2.20;;;27.50;75.50;;;;;;5069798;28;20486;-57
2022/07/18 10:23:19;;;;;;;4.88;2.40;;;27.50;72.80;;;;;;5056235;28;20514;-57
2022/07/18 10:26:15;;;;;;;6.95;1.90;;;27.60;74.40;;;;;;5082337;28;20120;-58
2022/07/18 10:28:56;;;;;;;5.65;2.25;;;27.80;73.90;;;;;;5070063;28;20036;-58
2022/07/18 10:31:23;;;;;;;4.82;2.25;;;27.80;72.70;;;;;;5068025;28;20048;-56
2022/07/18 10:33:49;;;;;;;5.38;1.90;;;27.70;72.50;;;;;;5069654;28;20368;-58
2022/07/18 10:36:24;;;;;;;7.90;2.33;;;27.70;72.70;;;;;;5054845;28;20043;-58
2022/07/18 10:39:10;;;;;;;3.03;1.90;;;27.70;72.90;;;;;;5070030;28;20052;-56
2022/07/18 10:41:39;;;;;;;5.78;2.00;;;27.80;73.20;;;;;;5067984;28;20102;-57
2022/07/18 10:44:26;;;;;;;4.10;2.38;;;27.90;72.70;;;;;;5070670;28;20536;-59
2022/07/18 10:49:58;;;;;;;4.03;2.25;;;28.20;71.20;;;;;;5066233;28;20048;-59
2022/07/18 10:52:30;;;;;;;6.90;2.75;;;28.40;70.00;;;;;;5047672;28;20098;-59
2022/07/18 10:55:05;;;;;;;5.82;2.10;;;28.40;69.70;;;;;;5085397;28;20583;-60
2022/07/18 10:57:42;;;;;;;5.85;2.58;;;28.60;69.70;;;;;;5083684;28;20503;-60
2022/07/18 11:00:10;;;;;;;6.53;2.40;;;28.80;66.70;;;;;;5069129;28;20456;-60
2022/07/18 11:02:42;;;;;;;4.00;2.63;;;28.90;66.60;;;;;;5069840;28;20040;-60
2022/07/18 11:05:44;;;;;;;6.18;2.42;;;28.90;65.20;;;;;;5065509;28;20047;-59
2022/07/18 11:08:13;;;;;;;6.93;2.10;;;29.00;64.20;;;;;;5029732;28;20048;-60
2022/07/18 11:10:45;;;;;;;4.70;2.20;;;29.10;65.70;;;;;;5057947;28;20398;-60
2022/07/18 11:13:29;;;;;;;3.97;2.30;;;29.10;63.80;;;;;;5065802;28;20089;-60
2022/07/18 11:16:09;;;;;;;6.55;2.65;;;28.90;63.60;;;;;;5069008;28;20105;-60
2022/07/18 11:18:44;;;;;;;5.10;2.22;;;28.70;63.30;;;;;;5068709;28;20044;-59
2022/07/18 11:21:17;;;;;;;6.65;2.63;;;28.50;63.70;;;;;;5068261;28;20032;-58
2022/07/18 11:23:46;;;;;;;;;;;28.30;63.90;;;;;;5069507;28;20037;-59
2022/07/18 11:26:16;;;;;;;5.22;2.60;;;28.10;63.40;;;;;;5068456;28;20011;-60
2022/07/18 11:28:43;;;;;;;6.00;2.75;;;28.00;65.20;;;;;;5068823;28;20068;-57
2022/07/18 11:31:11;;;;;;;6.72;2.72;;;27.90;65.30;;;;;;5065795;28;20045;-56
2022/07/18 11:33:45;;;;;;;4.47;2.65;;;27.80;66.20;;;;;;5068977;28;20360;-57
2022/07/18 11:36:13;;;;;;;7.25;2.75;;;27.90;66.60;;;;;;5059286;28;20072;-56
2022/07/18 11:38:50;;;;;;;8.10;3.35;;;27.90;66.80;;;;;;5065573;28;20059;-58
2022/07/18 11:41:17;;;;;;;5.70;2.40;;;28.00;65.40;;;;;;5068289;28;20102;-55
2022/07/18 11:43:47;;;;;;;6.70;2.17;;;27.90;66.20;;;;;;5060731;28;20041;-59
2022/07/18 11:46:14;;;;;;;5.28;1.90;;;27.90;66.10;;;;;;5068936;28;20503;-57
2022/07/18 11:48:41;;;;;;;5.28;2.72;;;27.90;66.60;;;;;;5068416;28;20040;-57
2022/07/18 11:51:18;;;;;;;5.68;2.80;;;27.80;67.20;;;;;;5068703;28;20147;-57
2022/07/18 11:53:48;;;;;;;8.38;2.60;;;27.90;64.40;;;;;;5068302;28;20068;-59
2022/07/18 11:56:16;;;;;;;3.72;2.10;;;27.80;65.40;;;;;;5067949;28;20044;-58
2022/07/18 11:58:43;;;;;;;4.82;2.45;;;27.80;65.60;;;;;;5069521;28;20124;-58
2022/07/18 12:01:12;;;;;;;6.78;2.50;;;28.00;65.60;;;;;;5068021;28;20040;-57
2022/07/18 12:03:50;;;;;;;7.68;2.35;;;28.20;66.40;;;;;;5055756;28;20121;-58
2022/07/18 12:06:17;;;;;;;5.57;2.55;;;28.40;64.90;;;;;;5068334;28;20048;-58
2022/07/18 12:08:51;;;;;;;4.45;1.95;;;28.50;63.50;;;;;;5083422;28;20033;-59
2022/07/18 12:11:19;;;;;;;4.50;2.67;;;28.60;63.90;;;;;;5061767;28;20105;-58
2022/07/18 12:13:48;;;;;;;5.25;2.28;;;28.80;63.80;;;;;;5069983;28;20085;-58
2022/07/18 12:16:43;;;;;;;4.10;2.15;;;28.90;63.50;;;;;;5067213;28;20473;-57
2022/07/18 12:19:12;;;;;;;5.97;2.20;;;29.10;61.90;;;;;;5065381;28;20048;-58
2022/07/18 12:22:04;;;;;;;4.47;2.10;;;29.10;61.20;;;;;;5060158;28;20052;-58
2022/07/18 12:27:21;;;;;;;3.60;2.00;;;29.20;61.10;;;;;;5044016;28;20762;-59
2022/07/18 12:30:08;;;;;;;5.95;2.13;;;29.20;61.90;;;;;;5047911;28;20479;-59
2022/07/18 12:32:46;;;;;;;4.10;2.28;;;29.30;61.70;;;;;;5031004;28;20424;-60
2022/07/18 12:35:14;;;;;;;5.25;2.10;;;29.50;60.40;;;;;;5047356;28;20033;-60
2022/07/18 12:37:40;;;;;;;7.20;2.33;;;29.80;61.00;;;;;;5052379;28;20049;-59
2022/07/18 12:40:09;;;;;;;4.38;2.45;;;30.10;61.70;;;;;;5057494;28;20107;-60
2022/07/18 12:42:41;;;;;;;5.13;2.47;;;30.30;59.70;;;;;;5048435;28;20036;-60
2022/07/18 12:45:08;;;;;;;5.25;2.25;;;30.30;60.50;;;;;;5048484;28;20083;-60
2022/07/18 12:47:34;;;;;;;3.85;2.20;;;30.30;60.80;;;;;;5030727;28;20451;-59
2022/07/18 12:50:00;;;;;;;3.83;2.25;;;30.00;59.20;;;;;;5044274;28;20041;-59
2022/07/18 12:52:26;;;;;;;4.82;2.45;;;30.00;59.90;;;;;;5030542;28;20094;-59
2022/07/18 12:54:52;;;;;;;6.45;2.20;;;30.00;60.40;;;;;;5047850;28;20037;-59
2022/07/18 12:57:19;;;;;;;2.67;1.63;;;29.80;59.70;;;;;;5063748;28;20047;-60
2022/07/18 12:59:46;;;;;;;5.07;2.30;;;29.80;60.40;;;;;;5044544;28;20082;-60
2022/07/18 13:02:13;;;;;;;5.25;2.40;;;30.10;60.20;;;;;;5048702;28;20120;-59